Time,TemperatureF,DewpointF,PressureIn,WindDirection,WindDirectionDegrees,WindSpeedMPH,WindSpeedGustMPH,Humidity,HourlyPrecipIn,Conditions,Clouds,dailyrainin,SoftwareType,DateUTC
2013-02-06 00:01:00,31.0,30.0,30.04,NNW,345,10.0,13.0,96,0.00,,,0.00,,2013-02-06 05:01:00,
2013-02-06 00:12:00,31.0,30.0,30.04,NNW,345,10.0,13.0,96,0.00,,,0.00,,2013-02-06 05:12:00,
2013-02-06 00:22:00,31.0,30.0,30.05,NNW,343,6.0,12.0,95,0.00,,,0.00,,2013-02-06 05:22:00,
2013-02-06 00:31:00,31.0,29.0,30.06,NNW,347,8.0,12.0,94,0.00,,,0.00,,2013-02-06 05:31:00,
2013-02-06 00:41:00,31.0,29.0,30.06,NNW,347,8.0,12.0,94,0.00,,,0.00,,2013-02-06 05:41:00,
2013-02-06 00:53:00,31.0,29.0,30.07,NNW,337,8.0,10.0,94,0.00,,,0.00,,2013-02-06 05:53:00,
2013-02-06 01:01:00,31.0,29.0,30.07,NNW,337,8.0,10.0,94,0.00,,,0.00,,2013-02-06 06:01:00,
2013-02-06 01:11:00,31.0,29.0,30.07,NNW,337,8.0,10.0,94,0.00,,,0.00,,2013-02-06 06:11:00,
2013-02-06 01:21:00,31.0,29.0,30.09,NNW,344,8.0,12.0,94,0.00,,,0.00,,2013-02-06 06:21:00,
2013-02-06 01:31:00,31.0,29.0,30.09,NNW,343,7.0,9.0,94,0.00,,,0.00,,2013-02-06 06:31:00,
2013-02-06 01:42:00,31.0,29.0,30.09,NNW,343,7.0,9.0,94,0.00,,,0.00,,2013-02-06 06:42:00,
2013-02-06 01:52:00,31.0,29.0,30.09,NNW,338,6.0,9.0,94,0.00,,,0.00,,2013-02-06 06:52:00,
2013-02-06 02:01:00,31.0,29.0,30.10,NNW,328,7.0,9.0,94,0.00,,,0.00,,2013-02-06 07:01:00,
2013-02-06 02:11:00,31.0,29.0,30.10,NNW,328,7.0,9.0,94,0.00,,,0.00,,2013-02-06 07:11:00,
2013-02-06 02:21:00,31.0,29.0,30.10,NNW,341,3.0,7.0,94,0.00,,,0.00,,2013-02-06 07:21:00,
2013-02-06 02:32:00,31.0,29.0,30.11,North,359,5.0,8.0,93,0.00,,,0.00,,2013-02-06 07:32:00,
2013-02-06 02:41:00,31.0,29.0,30.11,North,359,5.0,8.0,93,0.00,,,0.00,,2013-02-06 07:41:00,
2013-02-06 02:52:00,31.0,29.0,30.11,NNE,19,6.0,8.0,93,0.00,,,0.00,,2013-02-06 07:52:00,
2013-02-06 03:01:00,31.0,29.0,30.12,NNW,341,7.0,8.0,93,0.00,,,0.00,,2013-02-06 08:01:00,
2013-02-06 03:11:00,31.0,29.0,30.12,NNW,341,7.0,8.0,93,0.00,,,0.00,,2013-02-06 08:11:00,
2013-02-06 03:21:00,31.0,29.0,30.13,North,3,2.0,6.0,92,0.00,,,0.00,,2013-02-06 08:21:00,
2013-02-06 03:31:00,31.0,29.0,30.13,NNW,346,1.0,5.0,93,0.00,,,0.00,,2013-02-06 08:31:00,
2013-02-06 03:41:00,31.0,29.0,30.13,NNW,346,1.0,5.0,93,0.00,,,0.00,,2013-02-06 08:41:00,
2013-02-06 03:53:00,31.0,29.0,30.12,ENE,58,5.0,7.0,92,0.00,,,0.00,,2013-02-06 08:53:00,
2013-02-06 04:01:00,31.0,29.0,30.13,North,356,2.0,3.0,92,0.00,,,0.00,,2013-02-06 09:01:00,
2013-02-06 04:11:00,31.0,29.0,30.13,North,356,2.0,3.0,92,0.00,,,0.00,,2013-02-06 09:11:00,
2013-02-06 04:21:00,31.0,29.0,30.14,North,349,0.0,0.0,92,0.00,,,0.00,,2013-02-06 09:21:00,
2013-02-06 04:31:00,31.0,29.0,30.14,North,349,0.0,0.0,92,0.00,,,0.00,,2013-02-06 09:31:00,
2013-02-06 04:41:00,31.0,29.0,30.14,North,349,0.0,0.0,92,0.00,,,0.00,,2013-02-06 09:41:00,
2013-02-06 04:52:00,30.0,28.0,30.13,North,349,0.0,0.0,92,0.00,,,0.00,,2013-02-06 09:52:00,
2013-02-06 05:01:00,30.0,28.0,30.13,North,349,0.0,0.0,91,0.00,,,0.00,,2013-02-06 10:01:00,
2013-02-06 05:11:00,30.0,28.0,30.13,North,349,0.0,0.0,91,0.00,,,0.00,,2013-02-06 10:11:00,
2013-02-06 05:21:00,30.0,28.0,30.15,North,349,0.0,0.0,91,0.00,,,0.00,,2013-02-06 10:21:00,
2013-02-06 05:31:00,30.0,27.0,30.16,North,349,0.0,0.0,90,0.00,,,0.00,,2013-02-06 10:31:00,
2013-02-06 05:42:00,30.0,27.0,30.16,North,349,0.0,0.0,90,0.00,,,0.00,,2013-02-06 10:42:00,
2013-02-06 05:52:00,30.0,27.0,30.17,North,349,0.0,0.0,90,0.00,,,0.00,,2013-02-06 10:52:00,
2013-02-06 06:01:00,30.0,27.0,30.18,North,349,0.0,0.0,90,0.00,,,0.00,,2013-02-06 11:01:00,
2013-02-06 06:11:00,30.0,27.0,30.18,North,349,0.0,0.0,90,0.00,,,0.00,,2013-02-06 11:11:00,
2013-02-06 06:22:00,30.0,27.0,30.18,North,349,0.0,0.0,90,0.00,,,0.00,,2013-02-06 11:22:00,
2013-02-06 06:32:00,30.0,27.0,30.18,North,349,0.0,0.0,89,0.00,,,0.00,,2013-02-06 11:32:00,
2013-02-06 06:42:00,30.0,27.0,30.18,North,349,0.0,0.0,89,0.00,,,0.00,,2013-02-06 11:42:00,
2013-02-06 06:53:00,31.0,28.0,30.19,North,349,0.0,0.0,89,0.00,,,0.00,,2013-02-06 11:53:00,
2013-02-06 07:01:00,31.0,28.0,30.19,North,349,0.0,0.0,89,0.00,,,0.00,,2013-02-06 12:01:00,
2013-02-06 07:12:00,31.0,28.0,30.19,North,349,0.0,0.0,89,0.00,,,0.00,,2013-02-06 12:12:00,
2013-02-06 07:22:00,31.0,28.0,30.19,North,349,0.0,0.0,90,0.00,,,0.00,,2013-02-06 12:22:00,
2013-02-06 07:32:00,30.0,27.0,30.19,North,349,0.0,0.0,89,0.00,,,0.00,,2013-02-06 12:32:00,
2013-02-06 07:42:00,30.0,27.0,30.19,North,349,0.0,0.0,89,0.00,,,0.00,,2013-02-06 12:42:00,
2013-02-06 07:52:00,30.0,27.0,30.20,North,349,0.0,0.0,89,0.00,,,0.00,,2013-02-06 12:52:00,
2013-02-06 08:01:00,30.0,27.0,30.21,North,349,0.0,0.0,89,0.00,,,0.00,,2013-02-06 13:01:00,
2013-02-06 08:11:00,30.0,27.0,30.21,North,349,0.0,0.0,89,0.00,,,0.00,,2013-02-06 13:11:00,
2013-02-06 08:22:00,30.0,27.0,30.21,North,349,0.0,0.0,88,0.00,,,0.00,,2013-02-06 13:22:00,
2013-02-06 08:31:00,30.0,27.0,30.22,North,349,0.0,0.0,88,0.00,,,0.00,,2013-02-06 13:31:00,
2013-02-06 08:42:00,30.0,27.0,30.22,North,349,0.0,0.0,88,0.00,,,0.00,,2013-02-06 13:42:00,
2013-02-06 08:52:00,30.0,27.0,30.22,NNE,13,0.0,0.0,88,0.00,,,0.00,,2013-02-06 13:52:00,
2013-02-06 09:01:00,30.0,27.0,30.22,NNE,13,0.0,0.0,88,0.00,,,0.00,,2013-02-06 14:01:00,
2013-02-06 09:11:00,30.0,27.0,30.22,NNE,13,0.0,0.0,87,0.00,,,0.00,,2013-02-06 14:11:00,
2013-02-06 09:21:00,30.0,27.0,30.22,NNE,13,0.0,0.0,87,0.00,,,0.00,,2013-02-06 14:21:00,
2013-02-06 09:32:00,30.0,27.0,30.22,NNE,13,0.0,0.0,87,0.00,,,0.00,,2013-02-06 14:32:00,
2013-02-06 09:41:00,31.0,28.0,30.22,NNE,13,0.0,0.0,87,0.00,,,0.00,,2013-02-06 14:41:00,
2013-02-06 09:52:00,31.0,28.0,30.22,NNE,13,0.0,0.0,87,0.00,,,0.00,,2013-02-06 14:52:00,
2013-02-06 10:01:00,33.0,28.0,30.22,NNE,15,0.0,5.0,83,0.00,,,0.00,,2013-02-06 15:01:00,
2013-02-06 10:11:00,34.0,28.0,30.23,SSE,156,6.0,8.0,79,0.00,,,0.00,,2013-02-06 15:11:00,
2013-02-06 10:21:00,34.0,28.0,30.23,SSE,156,6.0,8.0,79,0.00,,,0.00,,2013-02-06 15:21:00,
2013-02-06 10:31:00,35.0,29.0,30.23,SSE,162,0.0,0.0,78,0.00,,,0.00,,2013-02-06 15:31:00,
2013-02-06 10:41:00,35.0,29.0,30.23,SSE,162,0.0,0.0,78,0.00,,,0.00,,2013-02-06 15:41:00,
2013-02-06 10:52:00,36.0,29.0,30.24,SE,144,0.0,0.0,76,0.00,,,0.00,,2013-02-06 15:52:00,
2013-02-06 11:01:00,36.0,29.0,30.24,SSE,161,6.0,7.0,74,0.00,,,0.00,,2013-02-06 16:01:00,
2013-02-06 11:11:00,36.0,29.0,30.24,SSE,161,6.0,7.0,74,0.00,,,0.00,,2013-02-06 16:11:00,
2013-02-06 11:21:00,37.0,29.0,30.24,SSE,158,0.0,0.0,72,0.00,,,0.00,,2013-02-06 16:21:00,
2013-02-06 11:32:00,37.0,29.0,30.24,SSE,168,0.0,0.0,73,0.00,,,0.00,,2013-02-06 16:32:00,
2013-02-06 11:42:00,37.0,29.0,30.24,SSE,168,0.0,0.0,73,0.00,,,0.00,,2013-02-06 16:42:00,
2013-02-06 11:52:00,36.0,28.0,30.25,SSE,167,2.0,5.0,72,0.00,,,0.00,,2013-02-06 16:52:00,
2013-02-06 12:02:00,36.0,28.0,30.25,SE,143,0.0,0.0,72,0.00,,,0.00,,2013-02-06 17:02:00,
2013-02-06 12:11:00,37.0,29.0,30.25,SE,143,0.0,0.0,72,0.00,,,0.00,,2013-02-06 17:11:00,
2013-02-06 12:21:00,37.0,29.0,30.25,SE,143,0.0,0.0,72,0.00,,,0.00,,2013-02-06 17:21:00,
2013-02-06 12:32:00,37.0,29.0,30.25,SW,223,8.0,10.0,73,0.00,,,0.00,,2013-02-06 17:32:00,
2013-02-06 12:41:00,37.0,29.0,30.26,SW,225,9.0,12.0,74,0.00,,,0.00,,2013-02-06 17:41:00,
2013-02-06 12:52:00,37.0,29.0,30.26,SW,225,9.0,12.0,74,0.00,,,0.00,,2013-02-06 17:52:00,
2013-02-06 13:01:00,37.0,29.0,30.24,SSW,205,3.0,10.0,74,0.00,,,0.00,,2013-02-06 18:01:00,
2013-02-06 13:11:00,37.0,29.0,30.24,SSW,213,6.0,10.0,73,0.00,,,0.00,,2013-02-06 18:11:00,
2013-02-06 13:23:00,37.0,29.0,30.24,SSW,213,6.0,10.0,73,0.00,,,0.00,,2013-02-06 18:23:00,
2013-02-06 13:32:00,37.0,29.0,30.23,SSE,166,8.0,13.0,73,0.00,,,0.00,,2013-02-06 18:32:00,
2013-02-06 13:42:00,37.0,29.0,30.23,SSE,166,8.0,13.0,73,0.00,,,0.00,,2013-02-06 18:42:00,
2013-02-06 13:52:00,37.0,29.0,30.22,SSW,194,8.0,9.0,74,0.00,,,0.00,,2013-02-06 18:52:00,
2013-02-06 14:01:00,37.0,30.0,30.23,WSW,247,0.0,0.0,76,0.00,,,0.00,,2013-02-06 19:01:00,
2013-02-06 14:11:00,37.0,30.0,30.23,WSW,247,0.0,0.0,76,0.00,,,0.00,,2013-02-06 19:11:00,
2013-02-06 14:21:00,37.0,30.0,30.21,SSE,167,10.0,14.0,76,0.00,,,0.00,,2013-02-06 19:21:00,
2013-02-06 14:31:00,37.0,30.0,30.20,SSW,192,9.0,12.0,76,0.00,,,0.00,,2013-02-06 19:31:00,
2013-02-06 14:41:00,37.0,30.0,30.20,SSW,192,9.0,12.0,76,0.00,,,0.00,,2013-02-06 19:41:00,
2013-02-06 14:52:00,37.0,31.0,30.22,SW,228,6.0,12.0,78,0.00,,,0.00,,2013-02-06 19:52:00,
2013-02-06 15:01:00,37.0,31.0,30.22,SW,223,8.0,12.0,78,0.00,,,0.00,,2013-02-06 20:01:00,
2013-02-06 15:11:00,37.0,31.0,30.23,SW,236,7.0,7.0,78,0.00,,,0.00,,2013-02-06 20:11:00,
2013-02-06 15:21:00,37.0,31.0,30.23,SW,236,7.0,7.0,78,0.00,,,0.00,,2013-02-06 20:21:00,
2013-02-06 15:31:00,37.0,31.0,30.23,SW,222,0.0,0.0,78,0.00,,,0.00,,2013-02-06 20:31:00,
2013-02-06 15:41:00,37.0,31.0,30.23,SW,222,0.0,0.0,78,0.00,,,0.00,,2013-02-06 20:41:00,
2013-02-06 15:52:00,38.0,32.0,30.22,SSW,195,0.0,0.0,78,0.00,,,0.00,,2013-02-06 20:52:00,
2013-02-06 16:01:00,37.0,31.0,30.22,SSE,154,2.0,3.0,78,0.00,,,0.00,,2013-02-06 21:01:00,
2013-02-06 16:11:00,37.0,31.0,30.22,SSE,154,2.0,3.0,78,0.00,,,0.00,,2013-02-06 21:11:00,
2013-02-06 16:21:00,37.0,31.0,30.22,SSW,194,9.0,13.0,78,0.00,,,0.00,,2013-02-06 21:21:00,
2013-02-06 16:32:00,38.0,32.0,30.22,SSW,199,7.0,12.0,78,0.00,,,0.00,,2013-02-06 21:32:00,
2013-02-06 16:41:00,38.0,32.0,30.22,SSW,199,7.0,12.0,78,0.00,,,0.00,,2013-02-06 21:41:00,
2013-02-06 16:52:00,37.0,31.0,30.22,South,180,8.0,10.0,78,0.00,,,0.00,,2013-02-06 21:52:00,
2013-02-06 17:01:00,37.0,31.0,30.21,SSW,200,6.0,9.0,78,0.00,,,0.00,,2013-02-06 22:01:00,
2013-02-06 17:11:00,37.0,31.0,30.21,SSW,200,6.0,9.0,78,0.00,,,0.00,,2013-02-06 22:11:00,
2013-02-06 17:21:00,37.0,31.0,30.21,SSW,195,7.0,8.0,80,0.00,,,0.00,,2013-02-06 22:21:00,
2013-02-06 17:31:00,37.0,31.0,30.20,SSE,162,5.0,10.0,80,0.00,,,0.00,,2013-02-06 22:31:00,
2013-02-06 17:41:00,37.0,31.0,30.20,SSE,162,5.0,10.0,80,0.00,,,0.00,,2013-02-06 22:41:00,
2013-02-06 17:52:00,37.0,32.0,30.21,South,174,5.0,9.0,82,0.00,,,0.00,,2013-02-06 22:52:00,
2013-02-06 18:01:00,36.0,31.0,30.21,South,182,3.0,7.0,82,0.00,,,0.00,,2013-02-06 23:01:00,
2013-02-06 18:11:00,36.0,31.0,30.21,South,182,3.0,7.0,82,0.00,,,0.00,,2013-02-06 23:11:00,
2013-02-06 18:21:00,36.0,32.0,30.21,South,178,8.0,10.0,84,0.00,,,0.00,,2013-02-06 23:21:00,
2013-02-06 18:31:00,35.0,31.0,30.21,South,173,6.0,8.0,85,0.00,,,0.00,,2013-02-06 23:31:00,
2013-02-06 18:41:00,35.0,31.0,30.21,South,173,6.0,8.0,85,0.00,,,0.00,,2013-02-06 23:41:00,
2013-02-06 18:52:00,35.0,31.0,30.20,South,169,5.0,5.0,86,0.00,,,0.00,,2013-02-06 23:52:00,
2013-02-06 19:01:00,34.0,31.0,30.20,SSE,161,5.0,5.0,87,0.00,,,0.00,,2013-02-07 00:01:00,
2013-02-06 19:11:00,34.0,31.0,30.20,SSE,161,5.0,5.0,87,0.00,,,0.00,,2013-02-07 00:11:00,
2013-02-06 19:21:00,34.0,31.0,30.19,SSE,160,8.0,9.0,88,0.00,,,0.00,,2013-02-07 00:21:00,
2013-02-06 19:31:00,34.0,31.0,30.18,SSE,165,7.0,10.0,89,0.00,,,0.00,,2013-02-07 00:31:00,
2013-02-06 19:41:00,34.0,31.0,30.18,SSE,165,7.0,10.0,89,0.00,,,0.00,,2013-02-07 00:41:00,
2013-02-06 19:52:00,34.0,31.0,30.18,SSE,168,7.0,8.0,89,0.00,,,0.00,,2013-02-07 00:52:00,
2013-02-06 20:01:00,34.0,31.0,30.18,South,176,7.0,9.0,90,0.00,,,0.00,,2013-02-07 01:01:00,
2013-02-06 20:11:00,34.0,31.0,30.18,South,176,7.0,9.0,90,0.00,,,0.00,,2013-02-07 01:11:00,
2013-02-06 20:21:00,34.0,32.0,30.20,SSW,212,7.0,12.0,91,0.00,,,0.00,,2013-02-07 01:21:00,
2013-02-06 20:31:00,34.0,32.0,30.20,SW,215,6.0,9.0,91,0.00,,,0.00,,2013-02-07 01:31:00,
2013-02-06 20:41:00,34.0,32.0,30.20,SW,215,6.0,9.0,91,0.00,,,0.00,,2013-02-07 01:41:00,
2013-02-06 20:52:00,34.0,32.0,30.20,South,182,7.0,9.0,91,0.00,,,0.00,,2013-02-07 01:52:00,
2013-02-06 21:01:00,34.0,32.0,30.20,South,189,7.0,12.0,91,0.00,,,0.00,,2013-02-07 02:01:00,
2013-02-06 21:11:00,34.0,32.0,30.20,South,189,7.0,12.0,91,0.00,,,0.00,,2013-02-07 02:11:00,
2013-02-06 21:21:00,33.0,31.0,30.20,SSE,163,7.0,12.0,91,0.00,,,0.00,,2013-02-07 02:21:00,
2013-02-06 21:31:00,33.0,31.0,30.19,South,170,6.0,8.0,91,0.00,,,0.00,,2013-02-07 02:31:00,
2013-02-06 21:41:00,33.0,31.0,30.19,South,170,6.0,8.0,91,0.00,,,0.00,,2013-02-07 02:41:00,
2013-02-06 21:52:00,33.0,31.0,30.19,South,170,6.0,8.0,91,0.00,,,0.00,,2013-02-07 02:52:00,
2013-02-06 22:02:00,33.0,31.0,30.18,South,185,8.0,12.0,92,0.00,,,0.00,,2013-02-07 03:02:00,
2013-02-06 22:11:00,33.0,31.0,30.17,South,175,8.0,13.0,93,0.00,,,0.00,,2013-02-07 03:11:00,
2013-02-06 22:21:00,33.0,31.0,30.17,South,175,8.0,13.0,93,0.00,,,0.00,,2013-02-07 03:21:00,
2013-02-06 22:31:00,33.0,31.0,30.17,South,178,10.0,14.0,93,0.00,,,0.00,,2013-02-07 03:31:00,
2013-02-06 22:41:00,33.0,31.0,30.17,South,178,10.0,14.0,93,0.00,,,0.00,,2013-02-07 03:41:00,
2013-02-06 22:52:00,32.0,30.0,30.17,South,179,8.0,12.0,93,0.00,,,0.00,,2013-02-07 03:52:00,
2013-02-06 23:01:00,32.0,30.0,30.16,SSE,161,9.0,15.0,94,0.00,,,0.00,,2013-02-07 04:01:00,
2013-02-06 23:11:00,32.0,30.0,30.16,SSE,161,9.0,15.0,94,0.00,,,0.00,,2013-02-07 04:11:00,
2013-02-06 23:22:00,32.0,30.0,30.16,South,178,10.0,16.0,94,0.00,,,0.00,,2013-02-07 04:22:00,
2013-02-06 23:31:00,32.0,30.0,30.16,South,191,7.0,10.0,94,0.00,,,0.00,,2013-02-07 04:31:00,
2013-02-06 23:41:00,32.0,30.0,30.16,South,191,7.0,10.0,94,0.00,,,0.00,,2013-02-07 04:41:00,
2013-02-06 23:53:00,33.0,31.0,30.16,South,185,10.0,14.0,94,0.00,,,0.00,,2013-02-07 04:53:00,